createdAt,value
2022-10-13T00:01:13.150Z,100.00
2022-10-13T00:03:42.062Z,100.00
2022-10-13T00:06:10.637Z,100.00
2022-10-13T00:08:39.267Z,100.00
2022-10-13T00:11:13.399Z,100.00
2022-10-13T00:13:42.006Z,100.00
2022-10-13T00:16:10.127Z,100.00
2022-10-13T00:18:41.221Z,100.00
2022-10-13T00:21:14.180Z,100.00
2022-10-13T00:23:42.169Z,100.00
2022-10-13T00:26:11.581Z,100.00
2022-10-13T00:28:39.457Z,100.00
2022-10-13T00:31:27.262Z,100.00
2022-10-13T00:33:55.281Z,100.00
2022-10-13T00:36:24.741Z,100.00
2022-10-13T00:38:52.781Z,100.00
2022-10-13T00:41:20.814Z,100.00
2022-10-13T00:44:10.163Z,100.00
2022-10-13T00:46:37.929Z,100.00
2022-10-13T00:49:13.833Z,100.00
2022-10-13T00:51:47.965Z,100.00
2022-10-13T00:54:18.112Z,100.00
2022-10-13T00:56:47.689Z,100.00
2022-10-13T00:59:23.393Z,100.00
2022-10-13T01:01:54.223Z,100.00
2022-10-13T01:04:23.840Z,100.00
2022-10-13T01:06:52.416Z,100.00
2022-10-13T01:09:20.970Z,100.00
2022-10-13T01:11:54.600Z,99.81
2022-10-13T01:14:43.479Z,99.71
2022-10-13T01:17:26.272Z,100.00
2022-10-13T01:20:12.511Z,100.00
2022-10-13T01:22:40.017Z,99.97
2022-10-13T01:25:31.229Z,99.49
2022-10-13T01:28:04.818Z,99.57
2022-10-13T01:30:35.672Z,99.66
2022-10-13T01:33:25.470Z,99.38
2022-10-13T01:35:57.333Z,100.00
2022-10-13T01:38:41.664Z,100.00
2022-10-13T01:41:38.121Z,100.00
2022-10-13T01:44:16.478Z,100.00
2022-10-13T01:46:51.837Z,100.00
2022-10-13T01:49:20.350Z,100.00
2022-10-13T01:51:49.322Z,99.79
2022-10-13T01:54:17.171Z,99.79
2022-10-13T01:56:54.695Z,99.67
2022-10-13T01:59:22.947Z,99.84
2022-10-13T02:02:10.640Z,99.74
2022-10-13T02:04:54.160Z,99.91
2022-10-13T02:07:47.841Z,100.00
2022-10-13T02:10:26.852Z,99.90
2022-10-13T02:12:58.015Z,100.00
2022-10-13T02:15:36.904Z,100.00
2022-10-13T02:18:16.497Z,100.00
2022-10-13T02:20:44.781Z,100.00
2022-10-13T02:23:15.403Z,100.00
2022-10-13T02:25:43.082Z,100.00
2022-10-13T02:28:15.877Z,100.00
2022-10-13T02:30:44.037Z,100.00
2022-10-13T02:33:11.815Z,100.00
2022-10-13T02:35:39.998Z,99.89
2022-10-13T02:38:08.750Z,100.00
2022-10-13T02:40:36.609Z,100.00
2022-10-13T02:43:04.247Z,100.00
2022-10-13T02:45:31.928Z,100.00
2022-10-13T02:47:59.549Z,100.00
2022-10-13T02:50:27.163Z,100.00
2022-10-13T02:52:57.371Z,100.00
2022-10-13T02:55:25.620Z,100.00
2022-10-13T02:57:57.743Z,100.00
2022-10-13T03:00:25.583Z,100.00
2022-10-13T03:02:54.199Z,100.00
2022-10-13T03:05:21.822Z,100.00
2022-10-13T03:07:50.085Z,100.00
2022-10-13T03:10:17.891Z,100.00
2022-10-13T03:12:46.791Z,100.00
2022-10-13T03:15:16.856Z,100.00
2022-10-13T03:17:46.581Z,100.00
2022-10-13T03:20:14.279Z,100.00
2022-10-13T03:22:44.861Z,100.00
2022-10-13T03:25:15.510Z,100.00
2022-10-13T03:27:44.856Z,100.00
2022-10-13T03:30:12.859Z,100.00
2022-10-13T03:32:40.947Z,100.00
2022-10-13T03:35:11.690Z,100.00
2022-10-13T03:37:40.232Z,100.00
2022-10-13T03:40:08.691Z,100.00
2022-10-13T03:42:37.046Z,100.00
2022-10-13T03:45:05.396Z,100.00
2022-10-13T03:47:37.961Z,100.00
2022-10-13T03:50:05.961Z,100.00
2022-10-13T03:52:34.113Z,100.00
2022-10-13T03:55:01.857Z,100.00
2022-10-13T03:57:29.674Z,100.00
2022-10-13T03:59:57.889Z,100.00
2022-10-13T04:02:27.550Z,100.00
2022-10-13T04:04:55.454Z,100.00
2022-10-13T04:07:23.298Z,100.00
2022-10-13T04:09:50.990Z,100.00
2022-10-13T04:12:21.106Z,100.00
2022-10-13T04:14:50.493Z,100.00
2022-10-13T04:17:18.125Z,100.00
2022-10-13T04:19:54.785Z,100.00
2022-10-13T04:22:22.701Z,100.00
2022-10-13T04:24:50.447Z,100.00
2022-10-13T04:27:20.013Z,100.00
2022-10-13T04:29:47.603Z,100.00
2022-10-13T04:32:15.356Z,100.00
2022-10-13T04:34:43.410Z,100.00
2022-10-13T04:37:11.222Z,100.00
2022-10-13T04:39:38.823Z,100.00
2022-10-13T04:42:06.894Z,99.91
2022-10-13T04:44:38.792Z,99.63
2022-10-13T04:47:08.081Z,99.29
2022-10-13T04:49:37.836Z,98.69
2022-10-13T04:52:05.696Z,98.48
2022-10-13T04:54:33.375Z,98.13
2022-10-13T04:57:00.997Z,98.20
2022-10-13T04:59:28.684Z,96.77
2022-10-13T05:01:56.302Z,96.89
2022-10-13T05:04:23.989Z,96.97
2022-10-13T05:07:16.560Z,96.25
2022-10-13T05:09:42.592Z,95.86
2022-10-13T05:12:13.873Z,95.75
2022-10-13T05:14:43.349Z,95.34
2022-10-13T05:17:10.901Z,94.87
2022-10-13T05:19:41.356Z,94.35
2022-10-13T05:22:09.219Z,94.18
2022-10-13T05:24:37.136Z,94.48
2022-10-13T05:27:10.318Z,94.53
2022-10-13T05:29:38.013Z,94.22
2022-10-13T05:32:05.911Z,93.89
2022-10-13T05:34:33.625Z,93.58
2022-10-13T05:37:01.700Z,93.83
2022-10-13T05:39:30.056Z,94.48
2022-10-13T05:41:58.007Z,93.40
2022-10-13T05:44:26.369Z,93.44
2022-10-13T05:46:57.232Z,92.95
2022-10-13T05:49:24.851Z,93.12
2022-10-13T05:51:57.538Z,92.34
2022-10-13T05:54:55.964Z,92.57
2022-10-13T05:57:28.919Z,91.50
2022-10-13T05:59:59.305Z,91.84
2022-10-13T06:02:28.688Z,91.05
2022-10-13T06:04:56.313Z,90.77
2022-10-13T06:07:24.285Z,91.10
2022-10-13T06:09:52.042Z,90.80
2022-10-13T06:12:20.211Z,90.35
2022-10-13T06:14:49.114Z,90.74
2022-10-13T06:17:19.287Z,89.88
2022-10-13T06:19:48.764Z,89.94
2022-10-13T06:22:18.138Z,89.11
2022-10-13T06:24:47.352Z,88.35
2022-10-13T06:27:15.402Z,88.90
2022-10-13T06:29:43.358Z,88.86
2022-10-13T06:32:11.161Z,88.57
2022-10-13T06:34:38.890Z,88.61
2022-10-13T06:37:06.954Z,88.50
2022-10-13T06:39:34.739Z,88.25
2022-10-13T06:42:04.881Z,88.15
2022-10-13T06:44:40.356Z,88.28
2022-10-13T06:47:07.996Z,88.24
2022-10-13T06:49:35.727Z,88.11
2022-10-13T06:52:05.187Z,87.04
2022-10-13T06:54:33.841Z,87.26
2022-10-13T06:57:01.487Z,87.65
2022-10-13T06:59:29.282Z,86.94
2022-10-13T07:01:57.666Z,86.63
2022-10-13T07:04:28.111Z,86.00
2022-10-13T07:06:59.666Z,86.21
2022-10-13T07:09:27.455Z,85.69
2022-10-13T07:11:55.056Z,85.48
2022-10-13T07:14:22.769Z,85.11
2022-10-13T07:16:52.239Z,85.26
2022-10-13T07:19:20.065Z,83.69
2022-10-13T07:21:48.251Z,83.42
2022-10-13T07:24:15.908Z,83.28
2022-10-13T07:26:45.304Z,83.20
2022-10-13T07:29:12.980Z,83.67
2022-10-13T07:31:42.316Z,82.88
2022-10-13T07:34:10.131Z,81.58
2022-10-13T07:36:40.828Z,81.21
2022-10-13T07:39:09.938Z,79.93
2022-10-13T07:41:37.718Z,81.09
2022-10-13T07:44:05.497Z,80.41
2022-10-13T07:46:34.117Z,79.77
2022-10-13T07:49:02.041Z,79.31
2022-10-13T07:51:29.762Z,79.16
2022-10-13T07:53:57.500Z,77.75
2022-10-13T07:56:25.320Z,77.93
2022-10-13T07:58:53.289Z,77.55
2022-10-13T08:01:20.965Z,76.56
2022-10-13T08:03:50.396Z,76.92
2022-10-13T08:06:19.421Z,76.86
2022-10-13T08:08:48.947Z,75.25
2022-10-13T08:11:20.205Z,75.98
2022-10-13T08:13:51.279Z,74.41
2022-10-13T08:16:22.572Z,73.46
2022-10-13T08:18:50.638Z,73.75
2022-10-13T08:24:13.291Z,72.74
2022-10-13T08:26:40.862Z,73.18
2022-10-13T08:29:24.433Z,72.04
2022-10-13T08:31:53.365Z,69.99
2022-10-13T08:34:22.550Z,69.01
2022-10-13T08:36:53.607Z,69.88
2022-10-13T08:39:25.210Z,68.91
2022-10-13T08:41:53.286Z,67.11
2022-10-13T08:47:28.685Z,68.34
2022-10-13T08:50:00.252Z,65.66
2022-10-13T08:52:53.388Z,66.01
2022-10-13T08:55:40.574Z,66.41
2022-10-13T08:58:20.211Z,66.31
2022-10-13T09:00:48.023Z,64.99
2022-10-13T09:03:25.742Z,64.21
2022-10-13T09:06:22.013Z,64.51
2022-10-13T09:08:56.791Z,64.54
2022-10-13T09:11:34.493Z,64.59
2022-10-13T09:14:09.261Z,63.93
2022-10-13T09:16:42.792Z,63.76
2022-10-13T09:19:24.173Z,63.31
2022-10-13T09:21:56.993Z,62.59
2022-10-13T09:24:26.046Z,62.92
2022-10-13T09:27:11.057Z,63.29
2022-10-13T09:29:40.928Z,60.12
2022-10-13T09:32:21.101Z,57.26
2022-10-13T09:34:49.304Z,57.50
2022-10-13T09:37:21.979Z,57.81
2022-10-13T09:40:01.931Z,58.15
2022-10-13T09:42:31.913Z,58.80
2022-10-13T09:45:16.857Z,56.67
2022-10-13T09:47:55.853Z,56.30
2022-10-13T09:50:27.938Z,56.30
2022-10-13T09:53:25.065Z,55.62
2022-10-13T09:56:08.259Z,53.43
2022-10-13T09:58:41.968Z,53.32
2022-10-13T10:01:17.217Z,52.59
2022-10-13T10:03:45.156Z,52.23
2022-10-13T10:06:13.112Z,49.90
2022-10-13T10:09:02.807Z,49.88
2022-10-13T10:11:42.851Z,51.20
2022-10-13T10:14:14.813Z,51.52
2022-10-13T10:16:45.161Z,52.24
2022-10-13T10:19:26.540Z,52.10
2022-10-13T10:21:57.270Z,51.97
2022-10-13T10:24:27.866Z,52.09
2022-10-13T10:27:10.315Z,53.21
2022-10-13T10:29:44.314Z,53.86
2022-10-13T10:32:18.197Z,54.92
2022-10-13T10:34:51.655Z,53.58
2022-10-13T10:37:25.783Z,53.97
2022-10-13T10:40:06.426Z,53.18
2022-10-13T10:43:08.807Z,49.83
2022-10-13T10:45:39.898Z,49.38
2022-10-13T10:48:15.300Z,49.61
2022-10-13T10:50:43.055Z,50.97
2022-10-13T10:53:19.140Z,50.04
2022-10-13T10:55:48.387Z,48.30
2022-10-13T10:58:57.018Z,47.68
2022-10-13T11:01:31.628Z,49.04
2022-10-13T11:04:37.091Z,48.42
2022-10-13T11:07:44.661Z,49.25
2022-10-13T11:10:18.463Z,49.98
2022-10-13T11:13:12.651Z,49.43
2022-10-13T11:15:44.299Z,51.18
2022-10-13T11:18:49.199Z,51.37
2022-10-13T11:21:17.341Z,50.31
2022-10-13T11:23:48.079Z,50.29
2022-10-13T11:26:41.815Z,49.02
2022-10-13T11:29:18.101Z,50.23
2022-10-13T11:31:52.641Z,50.47
2022-10-13T11:34:31.138Z,50.18
2022-10-13T11:37:00.404Z,50.40
2022-10-13T11:39:32.509Z,48.77
2022-10-13T11:42:12.570Z,49.57
2022-10-13T11:45:08.544Z,49.47
2022-10-13T11:48:14.084Z,45.59
2022-10-13T11:50:51.118Z,44.19
2022-10-13T11:53:19.642Z,43.79
2022-10-13T11:55:56.102Z,44.90
2022-10-13T11:58:27.491Z,45.43
2022-10-13T12:00:55.406Z,45.52
2022-10-13T12:03:24.089Z,46.36
2022-10-13T12:05:52.174Z,46.04
2022-10-13T12:08:21.010Z,46.30
2022-10-13T12:10:52.922Z,46.63
2022-10-13T12:13:25.818Z,46.43
2022-10-13T12:16:12.518Z,46.70
2022-10-13T12:18:41.969Z,48.39
2022-10-13T12:21:11.937Z,48.26
2022-10-13T12:23:39.951Z,48.73
2022-10-13T12:26:07.993Z,49.09
2022-10-13T12:29:00.927Z,48.65
2022-10-13T12:31:30.801Z,46.42
2022-10-13T12:33:59.976Z,44.25
2022-10-13T12:36:32.210Z,43.47
2022-10-13T12:39:05.560Z,41.97
2022-10-13T12:41:38.411Z,42.35
2022-10-13T12:44:06.927Z,41.13
2022-10-13T12:46:41.723Z,40.71
2022-10-13T12:49:23.694Z,41.23
2022-10-13T12:51:54.297Z,41.83
2022-10-13T12:54:27.369Z,43.86
2022-10-13T12:56:58.088Z,44.94
2022-10-13T12:59:26.225Z,44.12
2022-10-13T13:02:03.236Z,45.68
2022-10-13T13:04:37.705Z,46.14
2022-10-13T13:07:06.183Z,47.75
2022-10-13T13:09:34.966Z,47.50
2022-10-13T13:12:08.669Z,48.22
2022-10-13T13:14:41.081Z,48.53
2022-10-13T13:17:38.848Z,49.35
2022-10-13T13:20:32.375Z,49.53
2022-10-13T13:22:59.942Z,49.35
2022-10-13T13:25:27.616Z,49.68
2022-10-13T13:27:56.963Z,49.17
2022-10-13T13:30:24.848Z,48.84
2022-10-13T13:32:53.484Z,48.37
2022-10-13T13:35:21.278Z,48.46
2022-10-13T13:37:52.555Z,49.96
2022-10-13T13:40:24.641Z,49.91
2022-10-13T13:42:52.363Z,50.16
2022-10-13T13:45:24.997Z,50.18
2022-10-13T13:48:00.360Z,50.48
2022-10-13T13:50:33.367Z,50.87
2022-10-13T13:53:01.620Z,50.72
2022-10-13T13:55:30.155Z,51.41
2022-10-13T13:57:58.118Z,51.14
2022-10-13T14:00:25.736Z,51.79
2022-10-13T14:02:57.329Z,52.11
2022-10-13T14:05:25.452Z,52.23
2022-10-13T14:07:55.153Z,52.40
2022-10-13T14:10:24.783Z,52.74
2022-10-13T14:12:53.467Z,53.16
2022-10-13T14:15:23.420Z,54.15
2022-10-13T14:17:54.248Z,54.03
2022-10-13T14:20:22.221Z,54.71
2022-10-13T14:22:50.060Z,54.74
2022-10-13T14:25:18.136Z,55.16
2022-10-13T14:27:48.697Z,55.68
2022-10-13T14:30:16.255Z,55.52
2022-10-13T14:32:44.506Z,55.48
2022-10-13T14:35:12.234Z,56.34
2022-10-13T14:37:40.216Z,56.60
2022-10-13T14:40:08.422Z,56.38
2022-10-13T14:42:36.140Z,56.91
2022-10-13T14:45:06.737Z,57.51
2022-10-13T14:47:34.676Z,57.95
2022-10-13T14:50:02.732Z,59.19
2022-10-13T14:52:31.129Z,59.88
2022-10-13T14:54:58.765Z,61.08
2022-10-13T14:57:26.637Z,63.20
2022-10-13T14:59:56.874Z,64.74
2022-10-13T15:02:28.627Z,66.77
2022-10-13T15:04:58.038Z,69.62
2022-10-13T15:07:25.972Z,70.67
2022-10-13T15:10:04.833Z,71.56
2022-10-13T15:12:35.130Z,70.35
2022-10-13T15:15:03.421Z,69.18
2022-10-13T15:17:31.744Z,69.44
2022-10-13T15:19:59.951Z,70.89
2022-10-13T15:22:27.804Z,70.37
2022-10-13T15:24:55.524Z,70.74
2022-10-13T15:27:23.544Z,69.80
2022-10-13T15:29:51.097Z,68.59
2022-10-13T15:32:19.177Z,66.86
2022-10-13T15:34:53.432Z,66.52
2022-10-13T15:37:21.451Z,66.13
2022-10-13T15:39:53.181Z,66.12
2022-10-13T15:42:24.249Z,65.90
2022-10-13T15:45:08.607Z,65.52
2022-10-13T15:47:38.684Z,65.78
2022-10-13T15:50:07.030Z,65.87
2022-10-13T15:52:40.106Z,66.56
2022-10-13T15:55:09.448Z,66.51
2022-10-13T15:57:37.187Z,67.32
2022-10-13T16:00:06.240Z,66.79
2022-10-13T16:02:41.037Z,67.50
2022-10-13T16:05:10.039Z,67.77
2022-10-13T16:07:38.988Z,67.83
2022-10-13T16:10:12.329Z,68.68
2022-10-13T16:12:40.207Z,69.01
2022-10-13T16:15:09.353Z,69.57
2022-10-13T16:17:37.802Z,69.25
2022-10-13T16:20:08.166Z,69.64
2022-10-13T16:22:36.018Z,69.57
2022-10-13T16:25:06.409Z,69.58
2022-10-13T16:27:34.123Z,70.48
2022-10-13T16:30:01.783Z,70.50
2022-10-13T16:32:30.944Z,73.03
2022-10-13T16:34:59.535Z,72.54
2022-10-13T16:37:27.173Z,73.13
2022-10-13T16:39:56.517Z,74.07
2022-10-13T16:42:24.178Z,75.70
2022-10-13T16:44:51.746Z,75.05
2022-10-13T16:47:19.409Z,75.56
2022-10-13T16:49:47.780Z,76.05
2022-10-13T16:52:17.377Z,76.17
2022-10-13T16:54:46.633Z,77.33
2022-10-13T16:57:14.360Z,77.62
2022-10-13T16:59:41.898Z,78.16
2022-10-13T17:02:15.693Z,78.92
2022-10-13T17:04:43.823Z,79.45
2022-10-13T17:07:12.170Z,79.84
2022-10-13T17:09:40.121Z,79.97
2022-10-13T17:12:07.820Z,80.92
2022-10-13T17:14:36.601Z,81.43
2022-10-13T17:17:05.514Z,81.98
2022-10-13T17:19:34.278Z,82.37
2022-10-13T17:22:01.920Z,82.28
2022-10-13T17:24:30.286Z,82.96
2022-10-13T17:26:57.889Z,83.33
2022-10-13T17:29:26.193Z,83.31
2022-10-13T17:31:54.459Z,84.40
2022-10-13T17:34:23.030Z,85.78
2022-10-13T17:36:52.330Z,84.72
2022-10-13T17:39:20.213Z,84.32
2022-10-13T17:41:48.261Z,83.64
2022-10-13T17:44:20.539Z,83.59
2022-10-13T17:46:50.221Z,83.44
2022-10-13T17:49:18.921Z,83.69
2022-10-13T17:51:47.008Z,83.65
2022-10-13T17:54:16.620Z,83.61
2022-10-13T17:56:45.445Z,82.61
2022-10-13T17:59:15.303Z,81.71
2022-10-13T18:01:44.631Z,81.03
2022-10-13T18:04:14.130Z,80.77
2022-10-13T18:06:44.198Z,80.28
2022-10-13T18:09:14.050Z,80.12
2022-10-13T18:11:50.140Z,79.89
2022-10-13T18:14:22.515Z,80.04
2022-10-13T18:16:51.125Z,79.87
2022-10-13T18:19:21.724Z,79.76
2022-10-13T18:21:50.254Z,80.36
2022-10-13T18:24:18.563Z,80.76
2022-10-13T18:26:46.585Z,81.06
2022-10-13T18:29:14.655Z,81.65
2022-10-13T18:31:43.065Z,82.82
2022-10-13T18:34:16.089Z,83.25
2022-10-13T18:36:47.324Z,84.20
2022-10-13T18:39:16.041Z,84.94
2022-10-13T18:41:46.348Z,85.81
2022-10-13T18:44:14.334Z,85.71
2022-10-13T18:46:41.966Z,86.86
2022-10-13T18:49:12.689Z,88.24
2022-10-13T18:51:42.693Z,88.05
2022-10-13T18:54:10.649Z,87.57
2022-10-13T18:56:38.372Z,87.53
2022-10-13T18:59:06.926Z,88.32
2022-10-13T19:01:36.673Z,87.83
2022-10-13T19:04:05.019Z,88.22
2022-10-13T19:06:33.085Z,86.99
2022-10-13T19:09:02.696Z,87.53
2022-10-13T19:11:32.027Z,88.05
2022-10-13T19:14:01.441Z,89.28
2022-10-13T19:16:30.529Z,90.00
2022-10-13T19:19:00.202Z,90.05
2022-10-13T19:21:30.662Z,89.40
2022-10-13T19:24:01.559Z,88.63
2022-10-13T19:26:31.123Z,87.99
2022-10-13T19:29:01.129Z,88.83
2022-10-13T19:31:30.274Z,88.87
2022-10-13T19:33:59.817Z,88.34
2022-10-13T19:36:39.207Z,88.70
2022-10-13T19:39:26.271Z,88.09
2022-10-13T19:41:54.963Z,88.50
2022-10-13T19:44:23.431Z,88.87
2022-10-13T19:46:51.273Z,89.86
2022-10-13T19:49:21.226Z,89.14
2022-10-13T19:51:49.547Z,89.18
2022-10-13T19:54:18.151Z,88.99
2022-10-13T19:56:47.475Z,89.44
2022-10-13T19:59:15.587Z,90.33
2022-10-13T20:01:44.184Z,89.64
2022-10-13T20:04:15.974Z,89.50
2022-10-13T20:06:51.629Z,90.80
2022-10-13T20:09:22.149Z,90.36
2022-10-13T20:11:55.655Z,90.50
2022-10-13T20:14:25.776Z,90.67
2022-10-13T20:16:53.666Z,90.41
2022-10-13T20:19:23.111Z,90.58
2022-10-13T20:21:53.006Z,90.05
2022-10-13T20:24:21.797Z,90.36
2022-10-13T20:26:50.315Z,90.62
2022-10-13T20:29:22.856Z,90.36
2022-10-13T20:31:50.824Z,90.12
2022-10-13T20:34:18.578Z,90.48
2022-10-13T20:36:46.421Z,90.53
2022-10-13T20:39:14.291Z,91.06
2022-10-13T20:41:42.025Z,90.80
2022-10-13T20:44:10.379Z,91.15
2022-10-13T20:46:38.011Z,90.83
2022-10-13T20:49:11.302Z,90.86
2022-10-13T20:51:41.896Z,91.63
2022-10-13T20:54:10.694Z,94.04
2022-10-13T20:56:40.090Z,92.73
2022-10-13T20:59:10.068Z,92.59
2022-10-13T21:01:37.880Z,92.28
2022-10-13T21:04:05.729Z,91.99
2022-10-13T21:06:34.573Z,91.98
2022-10-13T21:09:04.763Z,91.64
2022-10-13T21:11:32.806Z,91.54
2022-10-13T21:14:02.994Z,91.68
2022-10-13T21:16:31.996Z,92.35
2022-10-13T21:19:01.948Z,92.91
2022-10-13T21:21:31.925Z,93.45
2022-10-13T21:24:01.571Z,93.47
2022-10-13T21:26:30.339Z,93.60
2022-10-13T21:28:57.988Z,93.74
2022-10-13T21:31:25.949Z,94.05
2022-10-13T21:33:54.600Z,94.69
2022-10-13T21:36:26.135Z,97.45
2022-10-13T21:38:54.528Z,97.98
2022-10-13T21:41:22.358Z,96.49
2022-10-13T21:43:50.820Z,95.97
2022-10-13T21:46:27.011Z,96.01
2022-10-13T21:48:56.797Z,95.78
2022-10-13T21:51:26.175Z,95.59
2022-10-13T21:53:57.621Z,95.71
2022-10-13T21:56:25.911Z,95.97
2022-10-13T21:58:54.691Z,95.72
2022-10-13T22:01:22.585Z,95.57
2022-10-13T22:03:53.425Z,95.81
2022-10-13T22:06:25.446Z,95.79
2022-10-13T22:08:54.235Z,96.47
2022-10-13T22:11:24.008Z,96.49
2022-10-13T22:13:52.243Z,97.73
2022-10-13T22:16:24.617Z,100.00
2022-10-13T22:18:54.304Z,100.00
2022-10-13T22:21:24.372Z,100.00
2022-10-13T22:23:52.116Z,100.00
2022-10-13T22:26:19.794Z,100.00
2022-10-13T22:28:51.596Z,99.74
2022-10-13T22:31:19.806Z,99.48
2022-10-13T22:33:47.561Z,98.89
2022-10-13T22:36:17.263Z,98.24
2022-10-13T22:38:45.655Z,98.19
2022-10-13T22:41:14.853Z,98.47
2022-10-13T22:43:46.869Z,97.74
2022-10-13T22:46:15.931Z,98.33
2022-10-13T22:48:44.996Z,98.07
2022-10-13T22:51:19.797Z,97.41
2022-10-13T22:53:47.662Z,96.90
2022-10-13T22:56:22.915Z,96.08
2022-10-13T22:59:01.537Z,96.25
2022-10-13T23:01:29.964Z,95.98
2022-10-13T23:03:58.426Z,96.43
2022-10-13T23:06:28.077Z,96.19
2022-10-13T23:08:56.472Z,96.14
2022-10-13T23:11:24.013Z,96.54
2022-10-13T23:13:51.925Z,96.99
2022-10-13T23:16:22.776Z,96.76
2022-10-13T23:18:52.912Z,96.58
2022-10-13T23:21:28.295Z,96.92
2022-10-13T23:23:57.638Z,96.02
2022-10-13T23:26:25.584Z,95.52
2022-10-13T23:28:55.413Z,95.56
2022-10-13T23:31:23.154Z,95.91
2022-10-13T23:33:50.901Z,95.47
2022-10-13T23:36:20.404Z,95.15
2022-10-13T23:38:58.913Z,95.57
2022-10-13T23:41:26.582Z,96.08
2022-10-13T23:43:54.281Z,96.48
2022-10-13T23:46:21.902Z,97.21
2022-10-13T23:48:49.681Z,97.15
2022-10-13T23:51:20.317Z,96.36
2022-10-13T23:53:48.037Z,96.55
2022-10-13T23:56:15.902Z,96.94
2022-10-13T23:58:44.694Z,97.06
